Time;durP1;ratioP1;P1;durP2;ratioP2;P2;SDS_P1;SDS_P2;PMS_P1;PMS_P2;Temp;Humidity;BMP_temperature;BMP_pressure;BME280_temperature;BME280_humidity;BME280_pressure;Samples;Min_cycle;Max_cycle;Signal;HPM_P1;HPM_P2
2023/04/06 00:02:22;;;;;;;;;;;;;;;5.67;46.72;101759.47;5025302;28;19917;-65
2023/04/06 00:04:47;;;;;;;;;;;;;;;5.58;47.16;101755.72;5028551;28;20317;-65
2023/04/06 00:07:12;;;;;;;;;;;;;;;5.53;46.87;101755.25;5025762;28;19925;-65
2023/04/06 00:09:38;;;;;;;;;;;;;;;5.51;47.14;101757.16;5023652;28;19987;-65
2023/04/06 00:12:03;;;;;;;;;;;;;;;5.49;46.79;101761.69;5025378;28;19917;-65
2023/04/06 00:14:28;;;;;;;;;;;;;;;5.50;46.97;101752.84;5024656;28;19924;-64
2023/04/06 00:16:53;;;;;;;;;;;;;;;5.49;46.97;101755.56;5029415;28;19964;-65
2023/04/06 00:19:18;;;;;;;;;;;;;;;5.49;47.38;101742.38;5025295;28;20008;-65
2023/04/06 00:21:43;;;;;;;;;;;;;;;5.49;47.04;101747.66;5024591;28;19923;-65
2023/04/06 00:24:09;;;;;;;;;;;;;;;5.47;46.91;101753.03;5022222;28;19978;-65
2023/04/06 00:26:34;;;;;;;;;;;;;;;5.46;46.95;101743.47;5024148;28;19925;-65
2023/04/06 00:28:59;;;;;;;;;;;;;;;5.46;47.01;101742.63;5028647;28;19917;-65
2023/04/06 00:31:25;;;;;;;;;;;;;;;5.44;47.42;101741.91;5028964;28;20008;-65
2023/04/06 00:33:50;;;;;;;;;;;;;;;5.39;47.65;101738.78;5027750;28;20382;-65
2023/04/06 00:36:15;;;;;;;;;;;;;;;5.37;47.34;101743.31;5023465;28;19925;-64
2023/04/06 00:38:40;;;;;;;;;;;;;;;5.35;47.19;101727.63;5024967;28;20397;-65
2023/04/06 00:41:05;;;;;;;;;;;;;;;5.34;46.88;101725.13;5017295;28;19920;-65
2023/04/06 00:43:31;;;;;;;;;;;;;;;5.32;46.71;101724.41;5018882;28;19917;-64
2023/04/06 00:45:56;;;;;;;;;;;;;;;5.27;47.43;101715.06;5026818;28;20409;-64
2023/04/06 00:48:21;;;;;;;;;;;;;;;5.24;47.04;101720.56;5011274;28;19925;-65
2023/04/06 00:50:46;;;;;;;;;;;;;;;5.21;46.91;101715.53;5028500;28;19917;-65
2023/04/06 00:53:11;;;;;;;;;;;;;;;5.19;47.18;101712.13;5021787;28;21337;-65
2023/04/06 00:55:38;;;;;;;;;;;;;;;5.14;47.28;101714.28;5027922;28;20129;-64
2023/04/06 00:58:03;;;;;;;;;;;;;;;5.13;47.43;101711.75;5021762;28;20290;-64
2023/04/06 01:00:29;;;;;;;;;;;;;;;5.11;47.40;101711.88;5016744;28;19913;-64
2023/04/06 01:02:54;;;;;;;;;;;;;;;5.08;47.02;101706.84;5028802;28;19913;-65
2023/04/06 01:05:20;;;;;;;;;;;;;;;5.08;47.13;101698.94;5025719;28;19921;-65
2023/04/06 01:07:45;;;;;;;;;;;;;;;5.05;47.03;101703.59;5023293;28;19924;-65
2023/04/06 01:10:10;;;;;;;;;;;;;;;5.02;47.35;101699.41;5026631;28;19947;-65
2023/04/06 01:12:37;;;;;;;;;;;;;;;5.02;47.43;101695.94;5027250;28;19917;-65
2023/04/06 01:15:02;;;;;;;;;;;;;;;5.00;47.44;101692.56;5014246;28;19943;-65
2023/04/06 01:17:28;;;;;;;;;;;;;;;4.99;47.37;101689.09;5026543;28;20011;-64
2023/04/06 01:19:53;;;;;;;;;;;;;;;4.98;47.38;101688.25;5025842;28;20413;-64
2023/04/06 01:22:19;;;;;;;;;;;;;;;4.97;47.48;101691.84;5019994;28;19917;-65
2023/04/06 01:24:45;;;;;;;;;;;;;;;4.97;47.72;101685.75;5025640;28;19983;-65
2023/04/06 01:27:10;;;;;;;;;;;;;;;4.96;47.66;101687.53;5027124;28;19924;-64
2023/04/06 01:29:35;;;;;;;;;;;;;;;4.98;47.78;101680.38;5025224;28;19917;-64
2023/04/06 01:32:00;;;;;;;;;;;;;;;4.99;47.58;101675.94;5027870;28;19928;-65
2023/04/06 01:34:26;;;;;;;;;;;;;;;4.98;47.86;101674.25;5022389;28;20337;-64
2023/04/06 01:36:51;;;;;;;;;;;;;;;4.97;47.98;101676.06;5027185;28;20032;-65
2023/04/06 01:39:16;;;;;;;;;;;;;;;4.98;48.00;101672.47;5024679;28;19931;-64
2023/04/06 01:41:41;;;;;;;;;;;;;;;4.96;48.04;101668.28;5013496;28;20378;-65
2023/04/06 01:44:06;;;;;;;;;;;;;;;4.94;48.20;101665.75;5025166;28;20016;-65
2023/04/06 01:46:32;;;;;;;;;;;;;;;4.95;48.58;101654.28;5026205;28;19924;-64
2023/04/06 01:48:57;;;;;;;;;;;;;;;4.95;48.68;101661.34;5025143;28;20420;-65
2023/04/06 01:51:24;;;;;;;;;;;;;;;4.96;49.01;101669.13;5026120;28;19960;-64
2023/04/06 01:53:49;;;;;;;;;;;;;;;4.95;49.18;101656.91;5025320;28;20102;-65
2023/04/06 01:56:14;;;;;;;;;;;;;;;4.95;49.18;101662.16;5025658;28;20350;-65
2023/04/06 01:58:39;;;;;;;;;;;;;;;4.95;49.39;101656.91;5010974;28;19913;-65
2023/04/06 02:01:05;;;;;;;;;;;;;;;4.95;49.41;101656.91;5023687;28;20397;-64
2023/04/06 02:03:31;;;;;;;;;;;;;;;4.91;49.93;101644.06;5023555;28;19917;-64
2023/04/06 02:05:56;;;;;;;;;;;;;;;4.90;50.00;101650.28;5019912;28;19956;-65
2023/04/06 02:08:21;;;;;;;;;;;;;;;4.90;49.88;101648.50;5027980;28;20316;-64
2023/04/06 02:10:46;;;;;;;;;;;;;;;4.93;49.92;101644.81;5028472;28;20015;-64
2023/04/06 02:13:11;;;;;;;;;;;;;;;4.94;50.18;101638.59;5025329;28;19917;-65
2023/04/06 02:15:37;;;;;;;;;;;;;;;4.96;50.72;101634.88;5022250;28;19964;-65
2023/04/06 02:18:02;;;;;;;;;;;;;;;4.97;50.29;101627.84;5022312;28;19928;-64
2023/04/06 02:20:27;;;;;;;;;;;;;;;4.96;50.61;101632.25;5025838;28;19936;-65
2023/04/06 02:22:52;;;;;;;;;;;;;;;4.98;50.30;101622.47;5020166;28;19917;-64
2023/04/06 02:25:17;;;;;;;;;;;;;;;4.97;50.48;101623.41;5017601;28;20512;-64
2023/04/06 02:27:42;;;;;;;;;;;;;;;4.96;50.79;101621.72;5025703;28;19925;-64
2023/04/06 02:30:08;;;;;;;;;;;;;;;4.94;50.74;101618.38;5020226;28;20405;-64
2023/04/06 02:32:33;;;;;;;;;;;;;;;4.96;50.79;101621.72;5021558;28;19925;-64
2023/04/06 02:34:58;;;;;;;;;;;;;;;4.97;50.70;101612.88;5023479;28;19924;-64
2023/04/06 02:37:23;;;;;;;;;;;;;;;4.98;51.25;101613.72;5023968;28;20000;-64
2023/04/06 02:39:49;;;;;;;;;;;;;;;4.98;51.25;101605.81;5017932;28;19933;-65
2023/04/06 02:42:15;;;;;;;;;;;;;;;4.98;51.36;101609.28;5020797;28;19933;-65
2023/04/06 02:44:40;;;;;;;;;;;;;;;4.98;51.13;101608.47;5020880;28;19933;-64
2023/04/06 02:47:05;;;;;;;;;;;;;;;4.96;51.07;101598.03;5017056;28;19924;-65
2023/04/06 02:49:31;;;;;;;;;;;;;;;4.98;51.78;101603.19;5017750;28;20008;-64
2023/04/06 02:51:56;;;;;;;;;;;;;;;4.97;52.45;101589.19;5017208;28;19928;-64
2023/04/06 02:54:21;;;;;;;;;;;;;;;4.99;52.12;101599.59;5024655;28;20003;-65
2023/04/06 02:56:46;;;;;;;;;;;;;;;5.01;52.11;101589.78;5022084;28;19921;-64
2023/04/06 02:59:11;;;;;;;;;;;;;;;5.03;52.41;101587.88;5030107;28;19913;-64
2023/04/06 03:01:36;;;;;;;;;;;;;;;5.03;52.25;101584.41;5019232;28;19925;-65
2023/04/06 03:04:02;;;;;;;;;;;;;;;5.03;52.61;101589.69;5022454;28;20390;-65
2023/04/06 03:06:27;;;;;;;;;;;;;;;5.03;52.40;101589.69;5020229;28;19931;-65
2023/04/06 03:08:52;;;;;;;;;;;;;;;5.04;52.92;101580.81;5031817;28;20389;-64
2023/04/06 03:11:17;;;;;;;;;;;;;;;5.04;53.96;101589.56;5019434;28;19968;-64
2023/04/06 03:13:43;;;;;;;;;;;;;;;5.02;53.76;101586.22;5017638;28;20287;-64
2023/04/06 03:16:08;;;;;;;;;;;;;;;5.04;53.25;101581.66;5019395;28;19920;-64
2023/04/06 03:18:33;;;;;;;;;;;;;;;5.05;53.65;101578.06;5020513;28;19920;-65
2023/04/06 03:21:00;;;;;;;;;;;;;;;5.07;53.81;101578.78;5026793;28;19921;-64
2023/04/06 03:23:25;;;;;;;;;;;;;;;5.09;53.71;101583.94;5022687;28;19948;-65
2023/04/06 03:25:50;;;;;;;;;;;;;;;5.07;53.69;101573.53;5028423;28;19983;-64
2023/04/06 03:28:15;;;;;;;;;;;;;;;5.08;53.21;101566.47;5027809;28;20365;-64
2023/04/06 03:30:41;;;;;;;;;;;;;;;5.06;53.45;101566.59;5020638;28;20417;-64
2023/04/06 03:33:06;;;;;;;;;;;;;;;5.05;53.61;101571.97;5027759;28;19921;-65
2023/04/06 03:35:31;;;;;;;;;;;;;;;5.04;53.23;101563.25;5019736;28;20016;-65
2023/04/06 03:37:57;;;;;;;;;;;;;;;5.02;53.51;101562.53;5024801;28;19917;-64
2023/04/06 03:40:22;;;;;;;;;;;;;;;5.01;53.48;101563.47;5019578;28;19921;-65
2023/04/06 03:42:47;;;;;;;;;;;;;;;5.02;53.53;101565.16;5023212;28;20006;-65
2023/04/06 03:45:13;;;;;;;;;;;;;;;5.03;53.60;101564.19;5009232;28;20036;-65
2023/04/06 03:47:38;;;;;;;;;;;;;;;5.04;53.64;101567.66;5024971;28;20035;-65
2023/04/06 03:50:04;;;;;;;;;;;;;;;5.06;53.40;101558.69;5022172;28;20023;-64
2023/04/06 03:52:30;;;;;;;;;;;;;;;5.08;53.17;101555.94;5027689;28;19917;-65
2023/04/06 03:54:55;;;;;;;;;;;;;;;5.10;53.00;101554.88;5019089;28;20047;-64
2023/04/06 03:57:20;;;;;;;;;;;;;;;5.12;53.12;101555.59;5021449;28;19925;-64
2023/04/06 03:59:45;;;;;;;;;;;;;;;5.12;53.33;101552.94;5024710;28;20015;-64
2023/04/06 04:02:10;;;;;;;;;;;;;;;5.11;53.65;101561.81;5026883;28;19917;-64
2023/04/06 04:04:36;;;;;;;;;;;;;;;5.08;53.29;101554.16;5024297;28;20011;-65
2023/04/06 04:07:01;;;;;;;;;;;;;;;5.09;53.67;101562.88;5023682;28;19917;-65
2023/04/06 04:09:26;;;;;;;;;;;;;;;5.08;53.62;101556.78;5020579;28;19957;-65
2023/04/06 04:11:51;;;;;;;;;;;;;;;5.06;53.56;101563.97;5020039;28;19924;-65
2023/04/06 04:14:16;;;;;;;;;;;;;;;5.06;53.33;101560.50;5021245;28;20286;-64
2023/04/06 04:16:41;;;;;;;;;;;;;;;5.06;53.04;101556.06;5028602;28;19913;-65
2023/04/06 04:19:07;;;;;;;;;;;;;;;5.06;53.06;101561.31;5024724;28;20350;-64
2023/04/06 04:21:32;;;;;;;;;;;;;;;5.05;53.25;101554.38;5026854;28;19913;-65
2023/04/06 04:23:57;;;;;;;;;;;;;;;5.02;53.40;101559.88;5027214;28;19986;-65
2023/04/06 04:26:22;;;;;;;;;;;;;;;4.97;53.55;101557.59;5026026;28;19921;-64
2023/04/06 04:28:47;;;;;;;;;;;;;;;4.94;53.95;101549.94;5026848;28;19932;-65
2023/04/06 04:31:13;;;;;;;;;;;;;;;4.91;53.90;101555.41;5028669;28;20670;-65
2023/04/06 04:33:38;;;;;;;;;;;;;;;4.89;54.11;101545.97;5026698;28;19921;-65
2023/04/06 04:36:03;;;;;;;;;;;;;;;4.89;53.62;101553.84;5028767;28;20431;-65
2023/04/06 04:38:29;;;;;;;;;;;;;;;4.89;53.30;101557.31;5024423;28;19921;-65
2023/04/06 04:40:54;;;;;;;;;;;;;;;4.90;53.49;101556.38;5023192;28;20461;-64
2023/04/06 04:43:19;;;;;;;;;;;;;;;4.89;53.19;101554.69;5017607;28;19913;-65
2023/04/06 04:45:45;;;;;;;;;;;;;;;4.89;53.78;101551.22;5026676;28;20418;-65
2023/04/06 04:48:10;;;;;;;;;;;;;;;4.88;53.71;101554.81;5030323;28;19924;-65
2023/04/06 04:50:35;;;;;;;;;;;;;;;4.88;54.14;101547.75;5028769;28;20303;-65
2023/04/06 04:53:00;;;;;;;;;;;;;;;4.89;54.18;101546.81;5022056;28;19925;-65
2023/04/06 04:55:25;;;;;;;;;;;;;;;4.89;54.17;101538.06;5023243;28;19917;-65
2023/04/06 04:57:51;;;;;;;;;;;;;;;4.89;53.97;101545.97;5023110;28;19917;-65
2023/04/06 05:00:16;;;;;;;;;;;;;;;4.89;54.42;101541.53;5020984;28;19916;-65
2023/04/06 05:02:41;;;;;;;;;;;;;;;4.90;54.02;101548.47;5026154;28;19940;-64
2023/04/06 05:05:07;;;;;;;;;;;;;;;4.90;54.00;101545.00;5028494;28;20016;-65
2023/04/06 05:07:32;;;;;;;;;;;;;;;4.89;53.58;101544.16;5022049;28;20449;-65
2023/04/06 05:09:57;;;;;;;;;;;;;;;4.89;53.93;101546.81;5026442;28;19948;-65
2023/04/06 05:12:23;;;;;;;;;;;;;;;4.88;53.93;101539.88;5025146;28;19925;-65
2023/04/06 05:14:48;;;;;;;;;;;;;;;4.87;54.03;101548.72;5008017;28;20011;-65
2023/04/06 05:17:13;;;;;;;;;;;;;;;4.89;53.46;101546.81;5019148;28;19925;-65
2023/04/06 05:19:38;;;;;;;;;;;;;;;4.89;53.71;101548.59;5021088;28;19989;-65
2023/04/06 05:22:04;;;;;;;;;;;;;;;4.90;54.05;101545.84;5016561;28;20315;-65
2023/04/06 05:24:29;;;;;;;;;;;;;;;4.89;53.71;101543.34;5020465;28;19925;-64
2023/04/06 05:26:54;;;;;;;;;;;;;;;4.91;54.34;101541.41;5012023;28;19921;-65
2023/04/06 05:29:20;;;;;;;;;;;;;;;4.90;53.86;101542.38;5022603;28;20428;-65
2023/04/06 05:31:45;;;;;;;;;;;;;;;4.89;54.13;101541.53;5024079;28;19936;-65
2023/04/06 05:34:12;;;;;;;;;;;;;;;4.90;54.09;101543.22;5025969;28;20754;-64
2023/04/06 05:36:37;;;;;;;;;;;;;;;4.90;54.44;101542.38;5022030;28;19997;-65
2023/04/06 05:39:02;;;;;;;;;;;;;;;4.91;54.78;101536.16;5023281;28;20004;-65
2023/04/06 05:41:27;;;;;;;;;;;;;;;4.91;55.34;101533.53;5024455;28;19917;-65
2023/04/06 05:43:52;;;;;;;;;;;;;;;4.93;55.25;101534.28;5019412;28;19939;-65
2023/04/06 05:46:18;;;;;;;;;;;;;;;4.94;55.63;101528.06;5027739;28;20310;-65
2023/04/06 05:48:43;;;;;;;;;;;;;;;4.95;55.22;101527.94;5012601;28;19965;-65
2023/04/06 05:51:08;;;;;;;;;;;;;;;4.96;55.15;101521.72;5026166;28;20397;-65
2023/04/06 05:53:33;;;;;;;;;;;;;;;4.98;55.69;101525.06;5018561;28;19913;-65
2023/04/06 05:56:00;;;;;;;;;;;;;;;5.00;55.66;101532.84;5025816;28;19988;-65
2023/04/06 05:58:26;;;;;;;;;;;;;;;5.04;55.45;101536.91;5025339;28;19917;-65
2023/04/06 06:00:55;;;;;;;;;;;;;;;5.06;55.02;101532.38;5026322;28;19924;-65
2023/04/06 06:03:22;;;;;;;;;;;;;;;5.10;55.27;101538.22;5024566;28;19923;-65
2023/04/06 06:05:47;;;;;;;;;;;;;;;5.14;55.40;101526.50;5023394;28;20036;-65
2023/04/06 06:08:12;;;;;;;;;;;;;;;5.16;55.39;101529.84;5024390;28;20016;-65
2023/04/06 06:10:38;;;;;;;;;;;;;;;5.16;55.68;101532.47;5024855;28;20434;-65
2023/04/06 06:13:03;;;;;;;;;;;;;;;5.16;55.68;101535.13;5024206;28;20006;-65
2023/04/06 06:15:28;;;;;;;;;;;;;;;5.11;57.21;101550.44;5022561;28;19932;-65
2023/04/06 06:17:53;;;;;;;;;;;;;;;5.03;57.94;101547.56;5027526;28;20012;-65
2023/04/06 06:20:19;;;;;;;;;;;;;;;4.97;58.57;101546.25;5023919;28;20283;-64
2023/04/06 06:22:44;;;;;;;;;;;;;;;4.96;58.78;101541.94;5019566;28;19974;-65
2023/04/06 06:25:09;;;;;;;;;;;;;;;4.96;59.11;101548.03;5020589;28;20063;-65
2023/04/06 06:27:34;;;;;;;;;;;;;;;5.02;59.12;101545.88;5025002;28;19917;-65
2023/04/06 06:29:59;;;;;;;;;;;;;;;5.09;59.28;101540.03;5021733;28;19968;-65
2023/04/06 06:32:25;;;;;;;;;;;;;;;5.15;58.96;101538.72;5024038;28;20386;-64
2023/04/06 06:34:50;;;;;;;;;;;;;;;5.21;58.50;101541.72;5024473;28;19913;-65
2023/04/06 06:37:15;;;;;;;;;;;;;;;5.26;58.00;101538.75;5023436;28;20024;-65
2023/04/06 06:39:40;;;;;;;;;;;;;;;5.33;58.41;101541.72;5016623;28;20390;-65
2023/04/06 06:42:05;;;;;;;;;;;;;;;5.38;58.72;101539.56;5016916;28;19975;-64
2023/04/06 06:44:31;;;;;;;;;;;;;;;5.44;58.52;101552.25;5025245;28;20357;-65
2023/04/06 06:46:56;;;;;;;;;;;;;;;5.49;58.49;101547.44;5024343;28;20494;-65
2023/04/06 06:49:21;;;;;;;;;;;;;;;5.53;58.28;101541.84;5018346;28;19917;-65
2023/04/06 06:51:46;;;;;;;;;;;;;;;5.57;58.32;101545.91;5017827;28;19917;-65
2023/04/06 06:54:11;;;;;;;;;;;;;;;5.60;57.62;101543.03;5025185;28;19975;-65
2023/04/06 06:56:37;;;;;;;;;;;;;;;5.63;57.79;101539.31;5025328;28;20329;-65
2023/04/06 06:59:03;;;;;;;;;;;;;;;5.67;57.46;101537.28;5027071;28;19917;-65
2023/04/06 07:01:28;;;;;;;;;;;;;;;5.69;57.35;101536.19;5022145;28;20375;-65
2023/04/06 07:03:53;;;;;;;;;;;;;;;5.70;57.51;101532.59;5017137;28;20003;-65
2023/04/06 07:06:18;;;;;;;;;;;;;;;5.72;57.42;101530.66;5023098;28;19930;-65
2023/04/06 07:08:43;;;;;;;;;;;;;;;5.77;57.14;101536.41;5025790;28;19970;-65
2023/04/06 07:11:08;;;;;;;;;;;;;;;5.80;57.53;101533.56;5020931;28;19921;-65
2023/04/06 07:13:34;;;;;;;;;;;;;;;5.85;57.45;101526.13;5023508;28;19948;-65
2023/04/06 07:15:59;;;;;;;;;;;;;;;5.93;57.65;101533.44;5023277;28;20417;-65
2023/04/06 07:18:25;;;;;;;;;;;;;;;5.96;57.76;101527.91;5021558;28;19948;-65
2023/04/06 07:20:50;;;;;;;;;;;;;;;5.99;57.42;101521.53;5026012;28;20333;-64
2023/04/06 07:23:15;;;;;;;;;;;;;;;6.01;57.61;101524.91;5028212;28;19925;-65
2023/04/06 07:25:40;;;;;;;;;;;;;;;6.06;57.59;101518.28;5021422;28;20025;-65
2023/04/06 07:28:06;;;;;;;;;;;;;;;6.10;57.93;101518.91;5024187;28;19921;-65
2023/04/06 07:30:31;;;;;;;;;;;;;;;6.11;58.50;101520.56;5020967;28;19917;-65
2023/04/06 07:32:56;;;;;;;;;;;;;;;6.15;58.75;101524.63;5024240;28;19921;-65
2023/04/06 07:35:26;;;;;;;;;;;;;;;6.20;58.53;101522.44;5025796;28;19917;-64
2023/04/06 07:37:51;;;;;;;;;;;;;;;6.22;58.72;101520.53;5023912;28;19924;-65
2023/04/06 07:40:16;;;;;;;;;;;;;;;6.25;58.45;101522.91;5026235;28;19921;-65
2023/04/06 07:42:41;;;;;;;;;;;;;;;6.30;58.57;101514.59;5023206;28;20446;-65
2023/04/06 07:45:07;;;;;;;;;;;;;;;6.36;59.04;101522.88;5018284;28;20354;-65
2023/04/06 07:47:32;;;;;;;;;;;;;;;6.40;58.64;101520.81;5025009;28;20465;-64
2023/04/06 07:49:57;;;;;;;;;;;;;;;6.40;58.59;101516.38;5026197;28;19924;-64
2023/04/06 07:52:23;;;;;;;;;;;;;;;6.44;58.89;101520.44;5025892;28;19921;-64
2023/04/06 07:54:49;;;;;;;;;;;;;;;6.46;58.44;101515.88;5027666;28;20433;-64
2023/04/06 07:57:14;;;;;;;;;;;;;;;6.47;58.52;101522.81;5027149;28;19923;-64
2023/04/06 07:59:39;;;;;;;;;;;;;;;6.51;58.48;101518.13;5027133;28;19917;-65
2023/04/06 08:02:05;;;;;;;;;;;;;;;6.51;58.38;101518.13;5026322;28;19921;-65
2023/04/06 08:04:30;;;;;;;;;;;;;;;6.53;58.51;101518.81;5025021;28;19923;-64
2023/04/06 08:06:55;;;;;;;;;;;;;;;6.57;58.58;101522.88;5017257;28;20452;-65
2023/04/06 08:09:20;;;;;;;;;;;;;;;6.68;58.69;101522.00;5023470;28;19921;-65
2023/04/06 08:11:47;;;;;;;;;;;;;;;6.74;58.47;101524.13;5029402;28;20035;-65
2023/04/06 08:14:12;;;;;;;;;;;;;;;6.75;58.36;101521.34;5026903;28;20207;-65
2023/04/06 08:16:39;;;;;;;;;;;;;;;6.77;58.81;101523.84;5027189;28;21272;-65
2023/04/06 08:19:05;;;;;;;;;;;;;;;6.79;58.57;101524.56;5023444;28;19925;-65
2023/04/06 08:21:30;;;;;;;;;;;;;;;6.74;58.71;101532.03;5024603;28;20341;-65
2023/04/06 08:23:56;;;;;;;;;;;;;;;6.78;59.10;101525.53;5018587;28;20008;-65
2023/04/06 08:26:21;;;;;;;;;;;;;;;6.76;59.15;101527.47;5026306;28;19921;-65
2023/04/06 08:28:46;;;;;;;;;;;;;;;6.75;59.30;101531.91;5025068;28;19956;-65
2023/04/06 08:31:11;;;;;;;;;;;;;;;6.77;59.51;101529.97;5022656;28;19926;-65
2023/04/06 08:33:38;;;;;;;;;;;;;;;6.83;59.41;101528.63;5015916;28;19960;-65
2023/04/06 08:36:11;;;;;;;;;;;;;;;6.82;59.59;101534.84;5020470;28;19921;-65
2023/04/06 08:38:36;;;;;;;;;;;;;;;6.83;59.84;101537.38;5023335;28;19925;-65
2023/04/06 08:41:06;;;;;;;;;;;;;;;6.86;59.35;101536.28;5020257;28;19937;-65
2023/04/06 08:43:33;;;;;;;;;;;;;;;6.88;59.46;101525.56;5022492;28;19931;-65
2023/04/06 08:45:59;;;;;;;;;;;;;;;6.91;59.50;101530.59;5022710;28;19925;-65
2023/04/06 08:48:25;;;;;;;;;;;;;;;6.97;60.22;101530.09;5026474;28;19970;-64
2023/04/06 08:50:50;;;;;;;;;;;;;;;7.03;60.11;101535.69;5017299;28;20413;-64
2023/04/06 08:53:16;;;;;;;;;;;;;;;7.08;59.97;101532.66;5028248;28;19921;-64
2023/04/06 08:55:42;;;;;;;;;;;;;;;7.12;60.64;101532.25;5028180;28;19917;-64
2023/04/06 08:58:08;;;;;;;;;;;;;;;7.17;60.74;101534.50;5021885;28;19921;-64
2023/04/06 09:00:35;;;;;;;;;;;;;;;7.21;60.91;101527.16;5023076;28;20295;-64
2023/04/06 09:03:01;;;;;;;;;;;;;;;7.26;61.37;101528.44;5021747;28;19925;-64
2023/04/06 09:05:26;;;;;;;;;;;;;;;7.31;61.45;101535.97;5022183;28;19944;-64
2023/04/06 09:07:51;;;;;;;;;;;;;;;7.36;62.28;101531.97;5026890;28;19971;-64
2023/04/06 09:10:17;;;;;;;;;;;;;;;7.44;62.35;101539.22;5027137;28;20301;-64
2023/04/06 09:12:42;;;;;;;;;;;;;;;7.49;62.29;101531.72;5023396;28;19917;-64
2023/04/06 09:15:17;;;;;;;;;;;;;;;7.55;62.65;101533.84;5023519;28;19917;-64
2023/04/06 09:17:43;;;;;;;;;;;;;;;7.59;62.95;101540.53;5022883;28;19984;-64
2023/04/06 09:20:08;;;;;;;;;;;;;;;7.62;62.93;101531.50;5016137;28;20418;-64
2023/04/06 09:22:38;;;;;;;;;;;;;;;7.70;63.29;101537.78;5021665;28;20444;-64
2023/04/06 09:25:03;;;;;;;;;;;;;;;7.81;63.46;101539.50;5021564;28;19944;-64
2023/04/06 09:27:35;;;;;;;;;;;;;;;7.89;63.56;101537.00;5027877;28;20417;-64
2023/04/06 09:30:03;;;;;;;;;;;;;;;7.97;64.03;101541.59;5024828;28;19925;-64
2023/04/06 09:32:28;;;;;;;;;;;;;;;8.04;64.10;101540.06;5022442;28;19924;-63
2023/04/06 09:34:54;;;;;;;;;;;;;;;8.06;63.86;101535.47;5022990;28;19917;-64
2023/04/06 09:37:19;;;;;;;;;;;;;;;8.09;64.18;101540.50;5023126;28;19921;-64
2023/04/06 09:39:45;;;;;;;;;;;;;;;8.07;64.47;101538.00;5026965;28;20325;-63
2023/04/06 09:42:11;;;;;;;;;;;;;;;8.10;65.13;101534.25;5024396;28;19928;-64
2023/04/06 09:44:36;;;;;;;;;;;;;;;8.10;65.72;101528.13;5024736;28;19928;-64
2023/04/06 09:47:03;;;;;;;;;;;;;;;8.21;66.04;101535.94;5020124;28;19996;-64
2023/04/06 09:49:30;;;;;;;;;;;;;;;8.27;66.38;101546.78;5024012;28;19966;-64
2023/04/06 09:51:56;;;;;;;;;;;;;;;8.25;65.97;101540.81;5025523;28;19917;-64
2023/04/06 09:54:22;;;;;;;;;;;;;;;8.23;66.19;101536.63;5027588;28;19917;-64
2023/04/06 09:56:47;;;;;;;;;;;;;;;8.22;66.81;101541.09;5019699;28;20267;-64
2023/04/06 09:59:14;;;;;;;;;;;;;;;8.10;66.52;101525.50;5032115;28;20386;-64
2023/04/06 10:01:40;;;;;;;;;;;;;;;8.09;67.38;101532.56;5023064;28;19921;-64
2023/04/06 10:04:20;;;;;;;;;;;;;;;8.03;67.47;101535.75;5020407;28;19924;-64
2023/04/06 10:06:47;;;;;;;;;;;;;;;7.97;68.70;101537.16;5023108;28;20398;-63
2023/04/06 10:09:14;;;;;;;;;;;;;;;7.93;69.08;101545.50;5027632;28;19924;-64
2023/04/06 10:11:39;;;;;;;;;;;;;;;7.85;69.56;101546.19;5018669;28;19920;-64
2023/04/06 10:14:05;;;;;;;;;;;;;;;7.78;70.45;101543.22;5025115;28;19913;-64
2023/04/06 10:16:30;;;;;;;;;;;;;;;7.75;70.81;101540.00;5025591;28;19921;-64
2023/04/06 10:19:01;;;;;;;;;;;;;;;7.76;71.74;101546.97;5023379;28;19920;-64
2023/04/06 10:21:28;;;;;;;;;;;;;;;7.76;71.95;101545.16;5023321;28;20549;-64
2023/04/06 10:23:57;;;;;;;;;;;;;;;7.77;72.54;101546.84;5024595;28;20403;-64
2023/04/06 10:26:22;;;;;;;;;;;;;;;7.75;72.69;101543.50;5015777;28;20499;-64
2023/04/06 10:28:48;;;;;;;;;;;;;;;7.75;73.31;101548.78;5021600;28;19917;-64
2023/04/06 10:31:14;;;;;;;;;;;;;;;7.74;73.60;101549.75;5026723;28;19929;-64
2023/04/06 10:33:41;;;;;;;;;;;;;;;7.73;73.72;101549.88;5018165;28;20015;-63
2023/04/06 10:36:13;;;;;;;;;;;;;;;7.73;74.16;101549.88;5028041;28;19921;-63
2023/04/06 10:38:39;;;;;;;;;;;;;;;7.73;74.53;101548.06;5023023;28;19932;-63
2023/04/06 10:41:08;;;;;;;;;;;;;;;7.76;74.75;101549.63;5019967;28;19921;-64
2023/04/06 10:43:37;;;;;;;;;;;;;;;7.71;75.07;101547.38;5020782;28;19957;-64
2023/04/06 10:46:02;;;;;;;;;;;;;;;7.72;75.63;101551.69;5019431;28;19921;-64
2023/04/06 10:48:41;;;;;;;;;;;;;;;7.70;76.20;101542.22;5022048;28;19936;-63
2023/04/06 10:51:14;;;;;;;;;;;;;;;7.65;76.46;101537.34;5020225;28;20074;-64
2023/04/06 10:53:43;;;;;;;;;;;;;;;7.64;76.71;101542.78;5016621;28;20325;-63
2023/04/06 10:56:11;;;;;;;;;;;;;;;7.59;76.48;101543.19;5020935;28;20421;-63
2023/04/06 10:58:36;;;;;;;;;;;;;;;7.55;76.72;101536.50;5022386;28;19917;-63
2023/04/06 11:01:01;;;;;;;;;;;;;;;7.48;77.55;101540.63;5025715;28;20314;-63
2023/04/06 11:03:27;;;;;;;;;;;;;;;7.42;77.56;101527.94;5019489;28;19918;-63
2023/04/06 11:05:52;;;;;;;;;;;;;;;7.37;78.06;101532.78;5016618;28;20063;-63
2023/04/06 11:08:30;;;;;;;;;;;;;;;7.34;78.71;101527.78;5018312;28;19928;-64
2023/04/06 11:11:09;;;;;;;;;;;;;;;7.38;79.12;101523.91;5021521;28;19913;-64
2023/04/06 11:13:40;;;;;;;;;;;;;;;7.48;79.12;101516.81;5017723;28;20372;-64
2023/04/06 11:16:05;;;;;;;;;;;;;;;7.62;78.98;101513.84;5015016;28;20564;-64
2023/04/06 11:18:31;;;;;;;;;;;;;;;7.70;79.15;101516.63;5020087;28;19917;-64
2023/04/06 11:20:56;;;;;;;;;;;;;;;7.80;79.58;101511.34;5017123;28;19931;-64
2023/04/06 11:23:27;;;;;;;;;;;;;;;7.82;79.67;101514.72;5020361;28;20432;-63
2023/04/06 11:25:52;;;;;;;;;;;;;;;7.88;79.89;101526.56;5027376;28;19944;-64
2023/04/06 11:28:18;;;;;;;;;;;;;;;7.86;79.63;101512.63;5023218;28;19917;-64
2023/04/06 11:30:43;;;;;;;;;;;;;;;7.91;80.05;101511.25;5022465;28;20394;-64
2023/04/06 11:33:08;;;;;;;;;;;;;;;7.92;80.29;101512.09;5025490;28;20447;-64
2023/04/06 11:35:33;;;;;;;;;;;;;;;7.94;80.75;101504.84;5017026;28;19943;-64
2023/04/06 11:38:02;;;;;;;;;;;;;;;7.88;80.59;101497.47;5025707;28;20024;-64
2023/04/06 11:40:29;;;;;;;;;;;;;;;7.83;80.64;101497.06;5025481;28;19925;-63
2023/04/06 11:42:55;;;;;;;;;;;;;;;7.90;81.00;101498.16;5022852;28;19917;-64
2023/04/06 11:45:21;;;;;;;;;;;;;;;7.83;80.69;101489.13;5022631;28;20318;-64
2023/04/06 11:47:54;;;;;;;;;;;;;;;7.86;81.09;101489.69;5028606;28;20477;-64
2023/04/06 11:50:20;;;;;;;;;;;;;;;7.92;80.91;101481.19;5028760;28;19928;-65
2023/04/06 11:52:45;;;;;;;;;;;;;;;8.00;80.40;101476.03;5029804;28;19917;-65
2023/04/06 11:55:15;;;;;;;;;;;;;;;8.08;80.56;101475.34;5021489;28;19943;-64
2023/04/06 11:57:40;;;;;;;;;;;;;;;8.26;80.56;101465.75;5026647;28;19928;-64
2023/04/06 12:00:07;;;;;;;;;;;;;;;8.40;81.20;101471.63;5033419;28;20012;-65
2023/04/06 12:02:32;;;;;;;;;;;;;;;8.46;81.23;101468.41;5025576;28;19917;-64
2023/04/06 12:04:57;;;;;;;;;;;;;;;8.55;81.08;101467.56;5026449;28;19928;-64
2023/04/06 12:07:22;;;;;;;;;;;;;;;8.54;80.78;101471.19;5027946;28;20003;-64
2023/04/06 12:09:47;;;;;;;;;;;;;;;8.56;81.01;101463.94;5026642;28;20321;-64
2023/04/06 12:12:12;;;;;;;;;;;;;;;8.55;81.00;101467.56;5029341;28;19917;-64
2023/04/06 12:14:38;;;;;;;;;;;;;;;8.63;80.72;101459.72;5025276;28;20342;-64
2023/04/06 12:17:03;;;;;;;;;;;;;;;8.52;80.45;101462.53;5028600;28;19913;-64
2023/04/06 12:19:28;;;;;;;;;;;;;;;8.45;80.46;101458.81;5025252;28;19913;-64
2023/04/06 12:21:54;;;;;;;;;;;;;;;8.34;80.83;101459.78;5030191;28;19913;-64
2023/04/06 12:24:19;;;;;;;;;;;;;;;8.29;81.04;101460.16;5029510;28;19925;-64
2023/04/06 12:26:45;;;;;;;;;;;;;;;8.30;81.10;101459.19;5029479;28;19960;-64
2023/04/06 12:29:11;;;;;;;;;;;;;;;8.26;81.44;101455.16;5010403;28;19940;-64
2023/04/06 12:31:38;;;;;;;;;;;;;;;8.19;81.73;101462.00;5029237;28;19974;-64
2023/04/06 12:34:03;;;;;;;;;;;;;;;8.19;81.96;101451.41;5021254;28;19917;-64
2023/04/06 12:36:28;;;;;;;;;;;;;;;8.18;82.59;101455.03;5020993;28;19913;-64
2023/04/06 12:38:54;;;;;;;;;;;;;;;8.14;82.66;101461.59;5025786;28;19970;-64
2023/04/06 12:41:19;;;;;;;;;;;;;;;8.08;83.06;101447.06;5013884;28;19917;-64